Terminal Aerodrome Forecast
Issued by NWS

Home | Current Version | Previous Version | Text Only | Print | Product List | Glossary On
Versions: 1 2 3 4 5 6 7 8 9 10 11 12 13 14 15 16 17 18 19 20
000
FTUS44 KEWX 071731
TAFSSF
TAF
KSSF 071731Z 0718/0818 16014G24KT P6SM SCT050 BKN250
     FM072200 14014G24KT P6SM SCT050 BKN250
     FM080400 13012KT P6SM BKN025
     FM080600 16010KT P6SM BKN013
     FM081500 17014G24KT P6SM SCT025 BKN250=

USA.gov is the U.S. government's official web portal to all federal, state and local government web resources and services.